Twizzle — 2DKS5 — position and weather

sailwx.info

Track history (hours):
 
Tides and Currents Weather Stations Pressure Air Temp Water Temp Dewpoint Dewpoint Depression Visibility Wind Speed Wind Dir Waves Ship Positions

Twizzle

Last reported at 2017-Mar-27 15:09 UTC. Time now 2017-Mar-27 20:39 UTC.
Position N 17°57' W 063°08'.

Length 58 m; draft 3.8 m.

Type: Sailing vessel. MMSI: 235079813.

Date/timePositionNaut miles runAvg speedWind from/ knotsBaromVisibWave heightAir tempDewpointWater temp
2017-Mar-27 15:09N 17°57' W 063°08'710.3
2017-Mar-27 14:29N 17°50' W 063°07'38 9.5
2017-Mar-27 10:26N 17°17' W 062°47'16 0.4
2017-Mar-25 20:10N 17°04' W 062°36'6 9.0
2017-Mar-25 19:33N 17°07' W 062°31'1313.1
2017-Mar-25 18:34N 17°15' W 062°20'2612.9
2017-Mar-25 16:34N 17°28' W 061°57'1110.9
2017-Mar-25 15:33N 17°33' W 061°47'1 0.7
2017-Mar-25 14:31N 17°33' W 061°47'0 0.0
2017-Mar-25 13:31N 17°33' W 061°47'0 0.0
2017-Mar-25 12:31N 17°33' W 061°47'0 0.0
2017-Mar-25 11:31N 17°33' W 061°47'0 0.0
2017-Mar-25 10:31N 17°33' W 061°47'0 0.0
2017-Mar-25 09:28N 17°33' W 061°47'0 0.0
2017-Mar-25 08:31N 17°33' W 061°47'0 0.0
2017-Mar-25 07:34N 17°33' W 061°47'0 0.0
2017-Mar-25 06:33N 17°33' W 061°47'0 0.0
2017-Mar-25 05:33N 17°33' W 061°47'0 0.0
2017-Mar-25 04:33N 17°33' W 061°47'0 0.0
2017-Mar-25 03:33N 17°33' W 061°47'0 0.0
2017-Mar-25 02:33N 17°33' W 061°47'0 0.0
2017-Mar-25 01:33N 17°33' W 061°47'0 0.0
2017-Mar-25 00:33N 17°33' W 061°47'0 0.0
2017-Mar-24 23:33N 17°33' W 061°47'0 0.0
2017-Mar-24 22:33N 17°33' W 061°47'0 0.0
2017-Mar-24 21:33N 17°33' W 061°47'0 0.0
2017-Mar-24 20:33N 17°33' W 061°47'0 0.0
2017-Mar-24 19:33N 17°33' W 061°47'0 0.0
2017-Mar-24 18:33N 17°33' W 061°47'0 0.0
2017-Mar-24 17:33N 17°33' W 061°47'0 0.0
2017-Mar-24 16:33N 17°33' W 061°47'0 0.0
2017-Mar-24 15:33N 17°33' W 061°47'0 0.0
2017-Mar-24 14:33N 17°33' W 061°47'0 0.0
2017-Mar-24 13:30N 17°33' W 061°47'0 0.0
2017-Mar-24 12:33N 17°33' W 061°47'0 0.0
2017-Mar-24 11:33N 17°33' W 061°47'0 0.0
2017-Mar-24 10:29N 17°33' W 061°47'0 0.0
2017-Mar-24 09:32N 17°33' W 061°47'0 0.0
2017-Mar-24 08:32N 17°33' W 061°47'0 0.0
2017-Mar-24 07:31N 17°33' W 061°47'0 0.0
2017-Mar-24 06:31N 17°33' W 061°47'0 0.0
2017-Mar-24 05:31N 17°33' W 061°47'0 0.0
2017-Mar-24 04:31N 17°33' W 061°47'0 0.0
2017-Mar-24 03:31N 17°33' W 061°47'0 0.0
2017-Mar-24 02:33N 17°33' W 061°47'0 0.0
2017-Mar-24 01:33N 17°33' W 061°47'0 0.0
2017-Mar-24 00:33N 17°33' W 061°47'0 0.0
2017-Mar-23 23:33N 17°33' W 061°47'0 0.0
2017-Mar-23 22:33N 17°33' W 061°47'5 4.6
2017-Mar-23 21:33N 17°29' W 061°48'10 9.7
2017-Mar-23 20:34N 17°22' W 061°42'1110.6
2017-Mar-23 19:34N 17°11' W 061°40'7 7.2
2017-Mar-23 18:34N 17°04' W 061°41'0 0.4
2017-Mar-23 17:33N 17°05' W 061°41'0 0.0
2017-Mar-23 16:33N 17°05' W 061°41'0 0.0
2017-Mar-23 15:33N 17°05' W 061°41'0 0.0
2017-Mar-23 14:33N 17°05' W 061°41'0 0.0
2017-Mar-23 13:33N 17°05' W 061°41'0 0.0
2017-Mar-23 12:33N 17°05' W 061°41'0 0.0
2017-Mar-23 11:33N 17°05' W 061°41'0 0.0
2017-Mar-23 10:30N 17°05' W 061°41'0 0.0
2017-Mar-23 09:33N 17°05' W 061°41'0 0.0
2017-Mar-23 08:33N 17°05' W 061°41'0 0.0
2017-Mar-23 07:33N 17°05' W 061°41'0 0.0
2017-Mar-23 06:33N 17°05' W 061°41'0 0.0
2017-Mar-23 05:33N 17°05' W 061°41'0 0.0
2017-Mar-23 04:33N 17°05' W 061°41'0 0.0
2017-Mar-23 03:33N 17°05' W 061°41'0 0.0
2017-Mar-23 02:33N 17°05' W 061°41'0 0.0
2017-Mar-23 01:33N 17°05' W 061°41'0 0.0
2017-Mar-23 00:33N 17°05' W 061°41'0 0.0
2017-Mar-22 23:33N 17°05' W 061°41'0 0.0
2017-Mar-22 22:33N 17°05' W 061°41'0 0.0
2017-Mar-22 21:33N 17°05' W 061°41'0 0.0
2017-Mar-22 20:33N 17°05' W 061°41'0 0.0
2017-Mar-22 19:33N 17°05' W 061°41'0 0.0
2017-Mar-22 18:33N 17°05' W 061°41'0 0.0
2017-Mar-22 17:33N 17°05' W 061°41'2 2.0
2017-Mar-22 16:34N 17°03' W 061°39'1010.2
2017-Mar-22 15:34N 16°54' W 061°44'6 6.2
2017-Mar-22 14:32N 17°00' W 061°46'0 0.0
2017-Mar-22 13:32N 17°00' W 061°46'0 0.0
2017-Mar-22 12:32N 17°00' W 061°46'0 0.0
2017-Mar-22 11:32N 17°00' W 061°46'0 0.0
2017-Mar-22 10:32N 17°00' W 061°46'0 0.0
2017-Mar-22 09:32N 17°00' W 061°46'0 0.0
2017-Mar-22 08:32N 17°00' W 061°46'0 0.0
2017-Mar-22 07:32N 17°00' W 061°46'0 0.0
2017-Mar-22 06:32N 17°00' W 061°46'0 0.0
2017-Mar-22 05:32N 17°00' W 061°46'0 0.0
2017-Mar-22 04:32N 17°00' W 061°46'0 0.0
2017-Mar-22 03:32N 17°00' W 061°46'0 0.0
2017-Mar-22 02:32N 17°00' W 061°46'0 0.0
2017-Mar-22 01:32N 17°00' W 061°46'0 0.0
2017-Mar-22 00:32N 17°00' W 061°46'0 0.0
2017-Mar-21 23:32N 17°00' W 061°46'0 0.0
2017-Mar-21 22:32N 17°00' W 061°46'0 0.0
2017-Mar-21 21:32N 17°00' W 061°46'0 0.0
2017-Mar-21 20:32N 17°00' W 061°46'0 0.0
2017-Mar-21 19:34N 17°00' W 061°46'4 4.1
2017-Mar-21 18:33N 17°01' W 061°50'0 0.0
2017-Mar-21 17:29N 17°01' W 061°50'0 0.0
2017-Mar-21 16:32N 17°01' W 061°50'0 0.0
2017-Mar-21 15:32N 17°01' W 061°50'0 0.0
2017-Mar-21 14:29N 17°01' W 061°50'0 0.0
2017-Mar-21 13:32N 17°01' W 061°50'0 0.0
2017-Mar-21 12:32N 17°01' W 061°50'0 0.0
2017-Mar-21 11:32N 17°01' W 061°50'0 0.0
2017-Mar-21 10:32N 17°01' W 061°50'0 0.0
2017-Mar-21 09:32N 17°01' W 061°50'0 0.0
2017-Mar-21 08:32N 17°01' W 061°50'0 0.0
2017-Mar-21 07:32N 17°01' W 061°50'0 0.0
2017-Mar-21 06:29N 17°01' W 061°50'0 0.1
2017-Mar-21 05:33N 17°01' W 061°50'6 6.0
2017-Mar-21 04:33N 17°02' W 061°56'9 9.2
2017-Mar-21 03:33N 17°09' W 062°03'10 9.6
2017-Mar-21 02:33N 17°15' W 062°10'1111.0
2017-Mar-21 01:33N 17°23' W 062°19'1111.4
2017-Mar-21 00:34N 17°31' W 062°27'1111.2
2017-Mar-20 23:34N 17°38' W 062°36'1210.7
2017-Mar-20 22:29N 17°47' W 062°44'8 0.3
2017-Mar-19 18:15N 17°51' W 062°51'  
Track history (hours):
 
Tides and Currents Weather Stations Pressure Air Temp Water Temp Dewpoint Dewpoint Depression Visibility Wind Speed Wind Dir Waves Ship Positions

Twizzle

Last reported at 2017-Mar-27 15:09 UTC. Time now 2017-Mar-27 20:39 UTC.
Position N 17°57' W 063°08'.

Length 58 m; draft 3.8 m.

Type: Sailing vessel. MMSI: 235079813.

Date/timePositionNaut miles runAvg speedWind from/ knotsBaromVisibWave heightAir tempDewpointWater temp
2017-Mar-27 15:09N 17°57' W 063°08'710.3
2017-Mar-27 14:29N 17°50' W 063°07'38 9.5
2017-Mar-27 10:26N 17°17' W 062°47'16 0.4
2017-Mar-25 20:10N 17°04' W 062°36'6 9.0
2017-Mar-25 19:33N 17°07' W 062°31'1313.1
2017-Mar-25 18:34N 17°15' W 062°20'2612.9
2017-Mar-25 16:34N 17°28' W 061°57'1110.9
2017-Mar-25 15:33N 17°33' W 061°47'1 0.7
2017-Mar-25 14:31N 17°33' W 061°47'0 0.0
2017-Mar-25 13:31N 17°33' W 061°47'0 0.0
2017-Mar-25 12:31N 17°33' W 061°47'0 0.0
2017-Mar-25 11:31N 17°33' W 061°47'0 0.0
2017-Mar-25 10:31N 17°33' W 061°47'0 0.0
2017-Mar-25 09:28N 17°33' W 061°47'0 0.0
2017-Mar-25 08:31N 17°33' W 061°47'0 0.0
2017-Mar-25 07:34N 17°33' W 061°47'0 0.0
2017-Mar-25 06:33N 17°33' W 061°47'0 0.0
2017-Mar-25 05:33N 17°33' W 061°47'0 0.0
2017-Mar-25 04:33N 17°33' W 061°47'0 0.0
2017-Mar-25 03:33N 17°33' W 061°47'0 0.0
2017-Mar-25 02:33N 17°33' W 061°47'0 0.0
2017-Mar-25 01:33N 17°33' W 061°47'0 0.0
2017-Mar-25 00:33N 17°33' W 061°47'0 0.0
2017-Mar-24 23:33N 17°33' W 061°47'0 0.0
2017-Mar-24 22:33N 17°33' W 061°47'0 0.0
2017-Mar-24 21:33N 17°33' W 061°47'0 0.0
2017-Mar-24 20:33N 17°33' W 061°47'0 0.0
2017-Mar-24 19:33N 17°33' W 061°47'0 0.0
2017-Mar-24 18:33N 17°33' W 061°47'0 0.0
2017-Mar-24 17:33N 17°33' W 061°47'0 0.0
2017-Mar-24 16:33N 17°33' W 061°47'0 0.0
2017-Mar-24 15:33N 17°33' W 061°47'0 0.0
2017-Mar-24 14:33N 17°33' W 061°47'0 0.0
2017-Mar-24 13:30N 17°33' W 061°47'0 0.0
2017-Mar-24 12:33N 17°33' W 061°47'0 0.0
2017-Mar-24 11:33N 17°33' W 061°47'0 0.0
2017-Mar-24 10:29N 17°33' W 061°47'0 0.0
2017-Mar-24 09:32N 17°33' W 061°47'0 0.0
2017-Mar-24 08:32N 17°33' W 061°47'0 0.0
2017-Mar-24 07:31N 17°33' W 061°47'0 0.0
2017-Mar-24 06:31N 17°33' W 061°47'0 0.0
2017-Mar-24 05:31N 17°33' W 061°47'0 0.0
2017-Mar-24 04:31N 17°33' W 061°47'0 0.0
2017-Mar-24 03:31N 17°33' W 061°47'0 0.0
2017-Mar-24 02:33N 17°33' W 061°47'0 0.0
2017-Mar-24 01:33N 17°33' W 061°47'0 0.0
2017-Mar-24 00:33N 17°33' W 061°47'0 0.0
2017-Mar-23 23:33N 17°33' W 061°47'0 0.0
2017-Mar-23 22:33N 17°33' W 061°47'5 4.6
2017-Mar-23 21:33N 17°29' W 061°48'10 9.7
2017-Mar-23 20:34N 17°22' W 061°42'1110.6
2017-Mar-23 19:34N 17°11' W 061°40'7 7.2
2017-Mar-23 18:34N 17°04' W 061°41'0 0.4
2017-Mar-23 17:33N 17°05' W 061°41'0 0.0
2017-Mar-23 16:33N 17°05' W 061°41'0 0.0
2017-Mar-23 15:33N 17°05' W 061°41'0 0.0
2017-Mar-23 14:33N 17°05' W 061°41'0 0.0
2017-Mar-23 13:33N 17°05' W 061°41'0 0.0
2017-Mar-23 12:33N 17°05' W 061°41'0 0.0
2017-Mar-23 11:33N 17°05' W 061°41'0 0.0
2017-Mar-23 10:30N 17°05' W 061°41'0 0.0
2017-Mar-23 09:33N 17°05' W 061°41'0 0.0
2017-Mar-23 08:33N 17°05' W 061°41'0 0.0
2017-Mar-23 07:33N 17°05' W 061°41'0 0.0
2017-Mar-23 06:33N 17°05' W 061°41'0 0.0
2017-Mar-23 05:33N 17°05' W 061°41'0 0.0
2017-Mar-23 04:33N 17°05' W 061°41'0 0.0
2017-Mar-23 03:33N 17°05' W 061°41'0 0.0
2017-Mar-23 02:33N 17°05' W 061°41'0 0.0
2017-Mar-23 01:33N 17°05' W 061°41'0 0.0
2017-Mar-23 00:33N 17°05' W 061°41'0 0.0
2017-Mar-22 23:33N 17°05' W 061°41'0 0.0
2017-Mar-22 22:33N 17°05' W 061°41'0 0.0
2017-Mar-22 21:33N 17°05' W 061°41'0 0.0
2017-Mar-22 20:33N 17°05' W 061°41'0 0.0
2017-Mar-22 19:33N 17°05' W 061°41'0 0.0
2017-Mar-22 18:33N 17°05' W 061°41'0 0.0
2017-Mar-22 17:33N 17°05' W 061°41'2 2.0
2017-Mar-22 16:34N 17°03' W 061°39'1010.2
2017-Mar-22 15:34N 16°54' W 061°44'6 6.2
2017-Mar-22 14:32N 17°00' W 061°46'0 0.0
2017-Mar-22 13:32N 17°00' W 061°46'0 0.0
2017-Mar-22 12:32N 17°00' W 061°46'0 0.0
2017-Mar-22 11:32N 17°00' W 061°46'0 0.0
2017-Mar-22 10:32N 17°00' W 061°46'0 0.0
2017-Mar-22 09:32N 17°00' W 061°46'0 0.0
2017-Mar-22 08:32N 17°00' W 061°46'0 0.0
2017-Mar-22 07:32N 17°00' W 061°46'0 0.0
2017-Mar-22 06:32N 17°00' W 061°46'0 0.0
2017-Mar-22 05:32N 17°00' W 061°46'0 0.0
2017-Mar-22 04:32N 17°00' W 061°46'0 0.0
2017-Mar-22 03:32N 17°00' W 061°46'0 0.0
2017-Mar-22 02:32N 17°00' W 061°46'0 0.0
2017-Mar-22 01:32N 17°00' W 061°46'0 0.0
2017-Mar-22 00:32N 17°00' W 061°46'0 0.0
2017-Mar-21 23:32N 17°00' W 061°46'0 0.0
2017-Mar-21 22:32N 17°00' W 061°46'0 0.0
2017-Mar-21 21:32N 17°00' W 061°46'0 0.0
2017-Mar-21 20:32N 17°00' W 061°46'0 0.0
2017-Mar-21 19:34N 17°00' W 061°46'4 4.1
2017-Mar-21 18:33N 17°01' W 061°50'0 0.0
2017-Mar-21 17:29N 17°01' W 061°50'0 0.0
2017-Mar-21 16:32N 17°01' W 061°50'0 0.0
2017-Mar-21 15:32N 17°01' W 061°50'0 0.0
2017-Mar-21 14:29N 17°01' W 061°50'0 0.0
2017-Mar-21 13:32N 17°01' W 061°50'0 0.0
2017-Mar-21 12:32N 17°01' W 061°50'0 0.0
2017-Mar-21 11:32N 17°01' W 061°50'0 0.0
2017-Mar-21 10:32N 17°01' W 061°50'0 0.0
2017-Mar-21 09:32N 17°01' W 061°50'0 0.0
2017-Mar-21 08:32N 17°01' W 061°50'0 0.0
2017-Mar-21 07:32N 17°01' W 061°50'0 0.0
2017-Mar-21 06:29N 17°01' W 061°50'0 0.1
2017-Mar-21 05:33N 17°01' W 061°50'6 6.0
2017-Mar-21 04:33N 17°02' W 061°56'9 9.2
2017-Mar-21 03:33N 17°09' W 062°03'10 9.6
2017-Mar-21 02:33N 17°15' W 062°10'1111.0
2017-Mar-21 01:33N 17°23' W 062°19'1111.4
2017-Mar-21 00:34N 17°31' W 062°27'1111.2
2017-Mar-20 23:34N 17°38' W 062°36'1210.7
2017-Mar-20 22:29N 17°47' W 062°44'8 0.3
2017-Mar-19 18:15N 17°51' W 062°51'  

Dump ship's entire track history